createdAt,value
2022-08-08T00:00:55.026Z,38.86
2022-08-08T00:02:31.201Z,38.80
2022-08-08T00:05:44.223Z,38.69
2022-08-08T00:08:29.705Z,38.94
2022-08-08T00:11:13.229Z,38.90
2022-08-08T00:14:16.605Z,38.67
2022-08-08T00:17:23.199Z,38.84
2022-08-08T00:20:14.807Z,38.72
2022-08-08T00:22:47.676Z,39.01
2022-08-08T00:25:45.054Z,39.12
2022-08-08T00:28:35.036Z,39.33
2022-08-08T00:32:15.032Z,39.33
2022-08-08T00:35:00.709Z,39.53
2022-08-08T00:38:01.259Z,39.41
2022-08-08T00:41:08.138Z,39.62
2022-08-08T00:43:58.816Z,39.57
2022-08-08T00:46:57.483Z,39.21
2022-08-08T00:50:21.981Z,39.36
2022-08-08T00:53:03.481Z,39.57
2022-08-08T00:56:18.508Z,39.86
2022-08-08T00:59:43.896Z,39.58
2022-08-08T01:03:58.446Z,40.14
2022-08-08T01:06:16.232Z,39.78
2022-08-08T01:09:35.390Z,39.84
2022-08-08T01:12:37.413Z,39.99
2022-08-08T01:15:26.089Z,39.93
2022-08-08T01:19:13.835Z,40.03
2022-08-08T01:22:35.046Z,39.87
2022-08-08T01:25:48.001Z,40.08
2022-08-08T01:29:05.635Z,39.75
2022-08-08T01:32:06.720Z,39.99
2022-08-08T01:35:30.348Z,39.93
2022-08-08T01:38:28.275Z,39.79
2022-08-08T01:41:15.884Z,39.95
2022-08-08T01:44:18.022Z,39.84
2022-08-08T01:46:57.881Z,39.65
2022-08-08T01:50:17.126Z,39.58
2022-08-08T01:55:17.535Z,40.10
2022-08-08T01:56:38.078Z,40.01
2022-08-08T02:00:01.975Z,40.01
2022-08-08T02:03:54.315Z,40.05
2022-08-08T02:06:36.700Z,40.44
2022-08-08T02:10:01.245Z,40.66
2022-08-08T02:12:24.465Z,40.65
2022-08-08T02:15:12.540Z,40.62
2022-08-08T02:18:10.284Z,40.67
2022-08-08T02:21:20.357Z,40.61
2022-08-08T02:24:06.151Z,40.91
2022-08-08T02:26:51.222Z,41.21
2022-08-08T02:30:21.356Z,40.88
2022-08-08T02:34:08.354Z,41.08
2022-08-08T02:36:54.735Z,41.33
2022-08-08T02:40:00.301Z,41.43
2022-08-08T02:44:45.043Z,41.62
2022-08-08T02:46:56.203Z,41.54
2022-08-08T02:49:50.686Z,41.73
2022-08-08T02:52:38.735Z,42.18
2022-08-08T02:55:19.701Z,42.06
2022-08-08T02:58:36.908Z,42.40
2022-08-08T03:01:50.033Z,42.52
2022-08-08T03:05:05.417Z,42.60
2022-08-08T03:07:58.218Z,42.32
2022-08-08T03:11:13.791Z,42.65
2022-08-08T03:15:58.849Z,43.01
2022-08-08T03:18:00.142Z,42.96
2022-08-08T03:20:53.374Z,42.68
2022-08-08T03:23:23.673Z,42.99
2022-08-08T03:25:51.999Z,42.74
2022-08-08T03:28:34.913Z,43.05
2022-08-08T03:31:25.677Z,42.90
2022-08-08T03:34:00.924Z,42.95
2022-08-08T03:36:30.554Z,43.76
2022-08-08T03:39:14.737Z,43.68
2022-08-08T03:42:11.794Z,43.60
2022-08-08T03:44:34.203Z,43.67
2022-08-08T03:47:14.160Z,43.67
2022-08-08T03:49:59.651Z,43.73
2022-08-08T03:52:31.723Z,43.70
2022-08-08T03:55:10.228Z,43.99
2022-08-08T03:58:31.721Z,43.66
2022-08-08T04:00:27.428Z,43.77
2022-08-08T04:03:11.397Z,44.50
2022-08-08T04:05:47.194Z,44.18
2022-08-08T04:08:32.462Z,44.11
2022-08-08T04:11:10.585Z,44.07
2022-08-08T04:14:04.462Z,43.79
2022-08-08T04:16:38.494Z,43.62
2022-08-08T04:19:23.682Z,43.69
2022-08-08T04:21:51.309Z,43.75
2022-08-08T04:24:28.936Z,43.53
2022-08-08T04:26:59.252Z,43.92
2022-08-08T04:29:27.764Z,43.71
2022-08-08T04:32:06.638Z,43.41
2022-08-08T04:34:49.289Z,43.03
2022-08-08T04:37:20.763Z,43.13
2022-08-08T04:40:06.539Z,42.64
2022-08-08T04:42:36.928Z,42.36
2022-08-08T04:45:06.106Z,42.29
2022-08-08T04:47:36.736Z,42.21
2022-08-08T04:50:24.287Z,41.88
2022-08-08T04:52:58.523Z,41.43
2022-08-08T04:55:37.912Z,41.34
2022-08-08T04:58:17.570Z,40.69
2022-08-08T05:00:45.190Z,40.76
2022-08-08T05:03:18.894Z,40.17
2022-08-08T05:06:13.620Z,39.96
2022-08-08T05:08:51.904Z,39.92
2022-08-08T05:11:22.751Z,39.45
2022-08-08T05:13:58.272Z,38.54
2022-08-08T05:16:47.846Z,38.83
2022-08-08T05:20:04.350Z,38.81
2022-08-08T05:22:07.049Z,38.56
2022-08-08T05:24:34.993Z,38.62
2022-08-08T05:27:05.345Z,38.20
2022-08-08T05:29:32.238Z,37.58
2022-08-08T05:34:42.266Z,37.01
2022-08-08T05:37:17.060Z,36.74
2022-08-08T05:39:57.039Z,36.03
2022-08-08T05:42:49.092Z,35.49
2022-08-08T05:45:25.253Z,35.13
2022-08-08T05:48:08.402Z,34.47
2022-08-08T05:50:36.839Z,34.37
2022-08-08T05:53:54.015Z,33.98
2022-08-08T05:56:09.519Z,33.07
2022-08-08T05:58:57.062Z,31.63
2022-08-08T06:01:52.564Z,31.28
2022-08-08T06:04:24.603Z,30.15
2022-08-08T06:07:00.474Z,29.70
2022-08-08T06:09:59.350Z,29.34
2022-08-08T06:12:30.070Z,28.54
2022-08-08T06:15:02.692Z,27.43
2022-08-08T06:17:51.251Z,26.38
2022-08-08T06:20:21.211Z,25.54
2022-08-08T06:22:49.366Z,24.56
2022-08-08T06:25:18.174Z,24.15
2022-08-08T06:27:55.293Z,23.00
2022-08-08T06:30:28.433Z,23.23
2022-08-08T06:33:01.305Z,22.07
2022-08-08T06:36:08.189Z,22.11
2022-08-08T06:38:27.606Z,20.93
2022-08-08T06:41:07.802Z,19.83
2022-08-08T06:43:57.475Z,19.11
2022-08-08T06:46:24.650Z,19.58
2022-08-08T06:48:57.084Z,18.47
2022-08-08T06:51:25.200Z,17.70
2022-08-08T06:54:01.446Z,16.95
2022-08-08T06:56:31.035Z,17.17
2022-08-08T06:58:58.067Z,16.24
2022-08-08T07:02:17.902Z,16.00
2022-08-08T07:04:37.832Z,15.80
2022-08-08T07:07:12.318Z,14.79
2022-08-08T07:10:08.264Z,14.11
2022-08-08T07:12:47.466Z,14.06
2022-08-08T07:15:31.971Z,15.04
2022-08-08T07:18:36.096Z,14.44
2022-08-08T07:21:05.184Z,14.79
2022-08-08T07:24:01.263Z,13.93
2022-08-08T07:26:35.530Z,13.58
2022-08-08T07:29:05.197Z,13.62
2022-08-08T07:31:35.453Z,13.09
2022-08-08T07:34:08.614Z,13.51
2022-08-08T07:36:42.039Z,13.07
2022-08-08T07:39:29.373Z,13.28
2022-08-08T07:42:05.118Z,13.44
2022-08-08T07:44:37.896Z,12.60
2022-08-08T07:47:09.150Z,12.66
2022-08-08T07:49:41.891Z,12.35
2022-08-08T07:52:19.697Z,12.68
2022-08-08T07:55:04.274Z,12.32
2022-08-08T07:57:48.496Z,13.08
2022-08-08T08:00:18.462Z,11.88
2022-08-08T08:02:56.286Z,12.58
2022-08-08T08:05:32.957Z,11.34
2022-08-08T08:08:10.486Z,11.89
2022-08-08T08:10:38.421Z,11.48
2022-08-08T08:13:42.928Z,10.90
2022-08-08T08:16:26.783Z,11.15
2022-08-08T08:19:04.567Z,10.86
2022-08-08T08:21:52.826Z,10.64
2022-08-08T08:24:30.610Z,10.38
2022-08-08T08:27:02.933Z,9.95
2022-08-08T08:29:31.090Z,9.38
2022-08-08T08:32:03.187Z,10.09
2022-08-08T08:34:32.648Z,10.46
2022-08-08T08:37:07.502Z,9.73
2022-08-08T08:39:39.255Z,9.18
2022-08-08T08:42:31.471Z,10.18
2022-08-08T08:45:21.432Z,9.73
2022-08-08T08:47:53.977Z,9.11
2022-08-08T08:50:33.496Z,9.21
2022-08-08T08:53:27.392Z,9.43
2022-08-08T08:56:02.023Z,9.57
2022-08-08T08:58:41.341Z,8.64
2022-08-08T09:01:15.085Z,8.91
2022-08-08T09:03:50.682Z,9.86
2022-08-08T09:06:34.074Z,9.55
2022-08-08T09:09:40.213Z,8.69
2022-08-08T09:12:20.016Z,8.23
2022-08-08T09:14:50.162Z,7.47
2022-08-08T09:17:31.469Z,7.46
2022-08-08T09:22:01.963Z,8.44
2022-08-08T09:22:58.676Z,8.58
2022-08-08T09:25:36.171Z,7.86
2022-08-08T09:28:35.427Z,7.83
2022-08-08T09:31:12.598Z,7.54
2022-08-08T09:34:15.953Z,6.99
2022-08-08T09:36:36.099Z,6.38
2022-08-08T09:39:15.328Z,5.93
2022-08-08T09:42:14.030Z,5.79
2022-08-08T09:44:45.653Z,6.98
2022-08-08T09:48:02.701Z,6.08
2022-08-08T09:50:15.304Z,5.88
2022-08-08T09:53:12.469Z,5.81
2022-08-08T09:56:03.354Z,6.35
2022-08-08T09:58:41.699Z,6.13
2022-08-08T10:01:15.363Z,6.70
2022-08-08T10:04:01.908Z,6.37
2022-08-08T10:06:35.676Z,7.01
2022-08-08T10:09:03.428Z,7.23
2022-08-08T10:12:26.222Z,7.56
2022-08-08T10:14:28.623Z,7.23
2022-08-08T10:18:05.391Z,7.60
2022-08-08T10:20:01.499Z,8.97
2022-08-08T10:22:35.905Z,9.15
2022-08-08T10:25:07.130Z,9.67
2022-08-08T10:27:43.977Z,11.55
2022-08-08T10:30:16.375Z,12.73
2022-08-08T10:33:01.560Z,14.01
2022-08-08T10:36:09.584Z,15.57
2022-08-08T10:38:20.977Z,16.58
2022-08-08T10:40:53.223Z,18.25
2022-08-08T10:43:22.834Z,18.83
2022-08-08T10:45:54.971Z,19.97
2022-08-08T10:48:57.610Z,21.44
2022-08-08T10:51:26.238Z,22.22
2022-08-08T10:53:59.792Z,22.81
2022-08-08T10:56:35.458Z,23.05
2022-08-08T10:59:10.365Z,22.69
2022-08-08T11:01:54.706Z,23.12
2022-08-08T11:04:29.489Z,23.52
2022-08-08T11:07:00.818Z,23.16
2022-08-08T11:09:31.973Z,23.58
2022-08-08T11:12:05.993Z,24.11
2022-08-08T11:15:13.023Z,24.42
2022-08-08T11:18:00.211Z,24.50
2022-08-08T11:20:29.835Z,24.63
2022-08-08T11:22:59.715Z,24.78
2022-08-08T11:25:46.227Z,25.44
2022-08-08T11:28:32.316Z,25.87
2022-08-08T11:31:03.672Z,25.66
2022-08-08T11:33:51.933Z,26.40
2022-08-08T11:36:22.878Z,25.62
2022-08-08T11:38:56.294Z,26.05
2022-08-08T11:41:32.349Z,26.51
2022-08-08T11:44:02.115Z,26.17
2022-08-08T11:46:31.799Z,26.59
2022-08-08T11:49:04.981Z,26.50
2022-08-08T11:51:40.274Z,26.41
2022-08-08T11:54:31.470Z,26.58
2022-08-08T11:57:16.906Z,26.60
2022-08-08T12:00:09.895Z,26.17
2022-08-08T12:02:57.319Z,26.66
2022-08-08T12:05:36.806Z,26.52
2022-08-08T12:08:04.676Z,26.76
2022-08-08T12:10:32.128Z,26.21
2022-08-08T12:13:04.848Z,27.27
2022-08-08T12:15:39.908Z,27.58
2022-08-08T12:18:25.227Z,26.71
2022-08-08T12:20:55.143Z,27.80
2022-08-08T12:23:43.777Z,27.58
2022-08-08T12:26:54.816Z,27.61
2022-08-08T12:29:42.164Z,27.37
2022-08-08T12:32:20.921Z,27.49
2022-08-08T12:35:13.533Z,27.66
2022-08-08T12:38:01.141Z,27.86
2022-08-08T12:40:56.537Z,28.54
2022-08-08T12:43:32.007Z,27.30
2022-08-08T12:46:03.519Z,27.90
2022-08-08T12:48:37.485Z,27.98
2022-08-08T12:51:07.891Z,27.93
2022-08-08T12:53:59.627Z,27.66
2022-08-08T12:56:38.673Z,27.12
2022-08-08T12:59:36.345Z,27.63
2022-08-08T13:02:28.297Z,27.57
2022-08-08T13:04:59.185Z,27.12
2022-08-08T13:08:04.337Z,27.03
2022-08-08T13:10:33.559Z,26.69
2022-08-08T13:13:05.871Z,26.60
2022-08-08T13:15:36.857Z,27.08
2022-08-08T13:18:11.776Z,27.31
2022-08-08T13:20:45.826Z,27.42
2022-08-08T13:23:46.296Z,27.35
2022-08-08T13:26:14.878Z,27.29
2022-08-08T13:28:45.448Z,27.12
2022-08-08T13:31:16.437Z,27.38
2022-08-08T13:33:49.665Z,27.40
2022-08-08T13:36:26.257Z,27.33
2022-08-08T13:38:54.914Z,27.70
2022-08-08T13:41:28.421Z,27.71
2022-08-08T13:44:07.509Z,27.31
2022-08-08T13:46:37.870Z,27.58
2022-08-08T13:50:35.387Z,27.06
2022-08-08T13:52:07.533Z,26.91
2022-08-08T13:54:40.805Z,27.91
2022-08-08T13:57:15.770Z,27.26
2022-08-08T13:59:49.049Z,27.07
2022-08-08T14:02:33.100Z,26.93
2022-08-08T14:05:04.814Z,27.06
2022-08-08T14:07:43.345Z,27.75
2022-08-08T14:10:33.195Z,26.94
2022-08-08T14:13:31.277Z,27.25
2022-08-08T14:16:07.981Z,27.06
2022-08-08T14:19:00.958Z,27.10
2022-08-08T14:21:52.148Z,27.79
2022-08-08T14:24:34.112Z,27.99
2022-08-08T14:27:01.609Z,28.07
2022-08-08T14:29:30.540Z,27.89
2022-08-08T14:32:10.966Z,27.98
2022-08-08T14:34:42.834Z,27.68
2022-08-08T14:37:12.913Z,27.82
2022-08-08T14:40:06.608Z,27.73
2022-08-08T14:42:36.651Z,27.81
2022-08-08T14:45:46.904Z,28.03
2022-08-08T14:48:27.284Z,27.74
2022-08-08T14:51:06.621Z,27.07
2022-08-08T14:53:54.491Z,26.62
2022-08-08T14:56:25.738Z,26.94
2022-08-08T14:58:54.674Z,26.67
2022-08-08T15:01:37.304Z,26.90
2022-08-08T15:04:09.596Z,26.93
2022-08-08T15:06:37.232Z,26.81
2022-08-08T15:09:04.574Z,26.17
2022-08-08T15:11:43.246Z,26.33
2022-08-08T15:14:19.951Z,26.68
2022-08-08T15:16:52.217Z,26.89
2022-08-08T15:19:19.116Z,27.26
2022-08-08T15:21:47.064Z,27.06
2022-08-08T15:24:16.164Z,26.82
2022-08-08T15:26:52.227Z,27.11
2022-08-08T15:29:22.680Z,27.63
2022-08-08T15:32:17.529Z,27.42
2022-08-08T15:34:39.857Z,27.34
2022-08-08T15:37:07.609Z,27.12
2022-08-08T15:39:38.259Z,27.70
2022-08-08T15:42:10.631Z,27.65
2022-08-08T15:44:45.897Z,27.27
2022-08-08T15:47:15.370Z,26.21
2022-08-08T15:49:47.759Z,26.68
2022-08-08T15:52:17.553Z,26.70
2022-08-08T15:54:51.341Z,27.31
2022-08-08T15:57:19.019Z,27.58
2022-08-08T16:00:06.472Z,27.35
2022-08-08T16:02:33.146Z,27.28
2022-08-08T16:05:04.074Z,27.65
2022-08-08T16:07:52.505Z,27.62
2022-08-08T16:13:05.150Z,27.41
2022-08-08T16:13:33.840Z,26.67
2022-08-08T16:16:13.135Z,27.78
2022-08-08T16:18:56.572Z,26.69
2022-08-08T16:21:31.704Z,26.89
2022-08-08T16:24:02.103Z,26.95
2022-08-08T16:26:32.903Z,26.41
2022-08-08T16:29:15.545Z,26.91
2022-08-08T16:31:49.179Z,26.51
2022-08-08T16:34:19.680Z,26.63
2022-08-08T16:36:50.350Z,26.94
2022-08-08T16:39:59.462Z,27.20
2022-08-08T16:42:06.788Z,27.19
2022-08-08T16:44:47.394Z,27.26
2022-08-08T16:47:31.689Z,26.99
2022-08-08T16:50:14.133Z,27.12
2022-08-08T16:55:04.272Z,27.46
2022-08-08T16:55:54.960Z,27.65
2022-08-08T16:58:26.675Z,27.30
2022-08-08T17:00:58.158Z,27.87
2022-08-08T17:04:00.370Z,28.05
2022-08-08T17:06:35.658Z,27.29
2022-08-08T17:09:00.108Z,27.09
2022-08-08T17:11:28.018Z,26.92
2022-08-08T17:14:01.393Z,27.41
2022-08-08T17:16:29.102Z,26.59
2022-08-08T17:18:56.637Z,27.01
2022-08-08T17:21:26.291Z,26.78
2022-08-08T17:24:01.322Z,27.25
2022-08-08T17:26:30.995Z,27.05
2022-08-08T17:29:04.248Z,26.68
2022-08-08T17:31:44.829Z,26.63
2022-08-08T17:34:48.427Z,26.60
2022-08-08T17:37:09.115Z,26.67
2022-08-08T17:40:03.361Z,26.61
2022-08-08T17:42:24.095Z,27.10
2022-08-08T17:44:52.299Z,27.46
2022-08-08T17:47:27.785Z,28.25
2022-08-08T17:50:01.253Z,27.62
2022-08-08T17:52:34.165Z,27.94
2022-08-08T17:55:05.346Z,28.38
2022-08-08T17:57:36.373Z,27.74
2022-08-08T18:00:13.343Z,27.62
2022-08-08T18:02:58.102Z,27.58
2022-08-08T18:05:49.546Z,28.06
2022-08-08T18:08:36.952Z,28.05
2022-08-08T18:11:15.403Z,27.51
2022-08-08T18:13:45.440Z,27.65
2022-08-08T18:16:20.569Z,27.79
2022-08-08T18:18:57.296Z,28.16
2022-08-08T18:22:00.511Z,28.32
2022-08-08T18:24:21.330Z,28.25
2022-08-08T18:26:53.690Z,28.38
2022-08-08T18:29:30.156Z,28.62
2022-08-08T18:32:03.580Z,28.39
2022-08-08T18:34:32.698Z,28.86
2022-08-08T18:37:04.705Z,28.64
2022-08-08T18:39:36.395Z,28.77
2022-08-08T18:42:06.133Z,28.78
2022-08-08T18:44:41.639Z,28.75
2022-08-08T18:47:08.556Z,28.99
2022-08-08T18:49:57.316Z,28.83
2022-08-08T18:52:23.705Z,29.31
2022-08-08T18:55:00.732Z,29.76
2022-08-08T18:57:42.117Z,30.08
2022-08-08T19:00:20.886Z,29.98
2022-08-08T19:02:55.746Z,30.05
2022-08-08T19:05:37.382Z,30.20
2022-08-08T19:08:25.497Z,30.45
2022-08-08T19:10:58.556Z,29.92
2022-08-08T19:13:53.417Z,30.49
2022-08-08T19:16:18.375Z,30.62
2022-08-08T19:18:53.155Z,30.21
2022-08-08T19:21:30.577Z,30.89
2022-08-08T19:24:05.845Z,30.93
2022-08-08T19:26:35.866Z,30.81
2022-08-08T19:29:06.332Z,31.15
2022-08-08T19:31:35.369Z,30.92
2022-08-08T19:34:30.174Z,31.32
2022-08-08T19:36:53.445Z,31.32
2022-08-08T19:39:23.115Z,31.28
2022-08-08T19:41:51.150Z,31.42
2022-08-08T19:44:26.870Z,31.48
2022-08-08T19:47:06.500Z,31.10
2022-08-08T19:49:37.722Z,31.44
2022-08-08T19:52:06.718Z,31.38
2022-08-08T19:54:33.844Z,30.96
2022-08-08T19:57:04.174Z,31.52
2022-08-08T19:59:35.304Z,31.78
2022-08-08T20:02:04.661Z,31.29
2022-08-08T20:04:33.833Z,31.37
2022-08-08T20:08:28.150Z,31.51
2022-08-08T20:09:57.172Z,31.86
2022-08-08T20:12:31.939Z,31.62
2022-08-08T20:15:14.410Z,31.88
2022-08-08T20:17:47.214Z,31.62
2022-08-08T20:20:19.332Z,31.76
2022-08-08T20:22:52.436Z,31.96
2022-08-08T20:25:21.618Z,31.83
2022-08-08T20:27:50.202Z,32.11
2022-08-08T20:30:52.475Z,32.25
2022-08-08T20:33:18.640Z,32.02
2022-08-08T20:35:56.977Z,32.74
2022-08-08T20:38:32.408Z,32.67
2022-08-08T20:41:05.657Z,32.93
2022-08-08T20:43:48.232Z,32.50
2022-08-08T20:46:20.694Z,32.80
2022-08-08T20:48:51.245Z,32.83
2022-08-08T20:51:18.435Z,33.31
2022-08-08T20:53:59.205Z,33.12
2022-08-08T20:56:35.393Z,33.34
2022-08-08T20:59:09.169Z,33.15
2022-08-08T21:01:44.389Z,33.60
2022-08-08T21:04:27.439Z,33.66
2022-08-08T21:06:55.772Z,33.49
2022-08-08T21:09:23.139Z,33.15
2022-08-08T21:11:53.624Z,33.63
2022-08-08T21:14:34.703Z,33.57
2022-08-08T21:17:05.971Z,33.75
2022-08-08T21:19:45.335Z,34.34
2022-08-08T21:22:15.580Z,34.48
2022-08-08T21:24:53.000Z,33.79
2022-08-08T21:28:05.913Z,34.35
2022-08-08T21:30:19.330Z,34.01
2022-08-08T21:32:52.297Z,34.32
2022-08-08T21:36:16.873Z,34.09
2022-08-08T21:38:11.979Z,34.31
2022-08-08T21:40:55.007Z,34.87
2022-08-08T21:43:25.181Z,34.78
2022-08-08T21:48:05.671Z,34.80
2022-08-08T21:48:41.527Z,34.64
2022-08-08T21:51:13.176Z,35.16
2022-08-08T21:54:23.406Z,35.06
2022-08-08T21:56:36.095Z,35.29
2022-08-08T21:59:09.824Z,34.98
2022-08-08T22:01:41.109Z,34.89
2022-08-08T22:04:11.402Z,35.52
2022-08-08T22:06:40.589Z,35.77
2022-08-08T22:09:09.768Z,35.78
2022-08-08T22:12:03.163Z,35.99
2022-08-08T22:14:26.770Z,35.87
2022-08-08T22:16:56.138Z,35.87
2022-08-08T22:19:23.970Z,36.19
2022-08-08T22:21:52.895Z,36.18
2022-08-08T22:24:23.878Z,36.38
2022-08-08T22:27:01.659Z,36.50
2022-08-08T22:29:59.396Z,36.37
2022-08-08T22:32:18.990Z,36.09
2022-08-08T22:34:50.471Z,36.42
2022-08-08T22:37:49.260Z,36.73
2022-08-08T22:40:11.773Z,36.46
2022-08-08T22:42:47.248Z,36.68
2022-08-08T22:45:15.404Z,36.82
2022-08-08T22:47:48.578Z,36.54
2022-08-08T22:50:26.177Z,37.03
2022-08-08T22:54:31.046Z,36.84
2022-08-08T22:55:58.034Z,36.80
2022-08-08T22:58:32.937Z,37.04
2022-08-08T23:02:00.995Z,37.25
2022-08-08T23:03:56.104Z,37.44
2022-08-08T23:06:27.098Z,37.27
2022-08-08T23:08:58.935Z,37.46
2022-08-08T23:11:58.173Z,37.17
2022-08-08T23:14:21.095Z,37.83
2022-08-08T23:16:54.712Z,37.28
2022-08-08T23:19:27.893Z,37.50
2022-08-08T23:21:59.032Z,37.98
2022-08-08T23:24:26.358Z,37.55
2022-08-08T23:27:03.374Z,37.91
2022-08-08T23:29:31.285Z,38.33
2022-08-08T23:31:58.485Z,38.51
2022-08-08T23:34:25.591Z,37.94
2022-08-08T23:36:59.832Z,37.93
2022-08-08T23:39:41.878Z,38.40
2022-08-08T23:42:16.936Z,38.45
2022-08-08T23:44:45.197Z,38.42
2022-08-08T23:49:04.616Z,38.65
2022-08-08T23:50:02.754Z,38.52
2022-08-08T23:52:32.766Z,39.14
2022-08-08T23:55:07.738Z,39.21
2022-08-08T23:57:52.138Z,39.03
